WetterOnline ( https://www.wetteronline.de )

Wetter aktuell Boizenburg

Aktuelles Wetter: Boizenburg (46m)

6-stündlich | Neueste Meldungen
Ortszeit Temperatur Wetter
So, 29.01. 7:00 1.9° C bewölkt
So, 29.01. 1:00 1.3° C bedeckt
Sa, 28.01. 19:00 0.9° C bedeckt
Sa, 28.01. 13:00 0.5° C wolkig
Sa, 28.01. 7:00 -0.6° C bedeckt
Sa, 28.01. 1:00 0.3° C bedeckt
Fr, 27.01. 19:00 0.8° C bedeckt
Fr, 27.01. 13:00 2.8° C bedeckt
Ortszeit Temperatur Wetter
So, 29.01. 7:00 1.9° C bewölkt
So, 29.01. 6:40 1.9° C Sprühregen
So, 29.01. 6:30 2.0° C Sprühregen
So, 29.01. 6:20 2.0° C Sprühregen
So, 29.01. 6:10 2.0° C Dunst
So, 29.01. 6:00 2.0° C bedeckt
So, 29.01. 5:50 2.0° C Dunst
So, 29.01. 5:30 1.9° C bedeckt
So, 29.01. 5:00 1.8° C bedeckt
So, 29.01. 4:30 1.7° C bedeckt
So, 29.01. 4:00 1.7° C bedeckt
Ortszeit Relative Feuchte Sichtweite
So, 29.01. 7:00 96% 4.1 km
So, 29.01. 1:00 93% 8 km
Sa, 28.01. 19:00 79% 24 km
Sa, 28.01. 13:00 71% 45 km
Sa, 28.01. 7:00 81% >70 km
Sa, 28.01. 1:00 76% >70 km
Fr, 27.01. 19:00 75% >70 km
Fr, 27.01. 13:00 79% 65 km
Ortszeit Relative Feuchte Sichtweite
So, 29.01. 7:00 96% 4.1 km
So, 29.01. 6:40 97% -
So, 29.01. 6:30 96% 1.7 km
So, 29.01. 6:20 96% -
So, 29.01. 6:10 96% -
So, 29.01. 6:00 96% 4.2 km
So, 29.01. 5:50 96% -
So, 29.01. 5:30 96% 6 km
So, 29.01. 5:00 96% 4.5 km
So, 29.01. 4:30 96% 3.4 km
So, 29.01. 4:00 96% 3.0 km
Ortszeit Niederschlagsmenge Niederschlagsart
So, 29.01. 7:00 0.4 l/m2 in 12 Std. Regen
So, 29.01. 1:00 0.1 l/m2 in 6 Std. Schnee, Sprühregen
Sa, 28.01. 19:00 0.1 l/m2 in 12 Std. Niederschlag
Sa, 28.01. 13:00 0.0 l/m2 in 6 Std. -
Sa, 28.01. 7:00 0.0 l/m2 in 12 Std. -
Sa, 28.01. 1:00 0.0 l/m2 in 6 Std. -
Fr, 27.01. 19:00 0.1 l/m2 in 12 Std. -
Fr, 27.01. 13:00 0.1 l/m2 in 6 Std. Sprühregen
Ortszeit Niederschlagsmenge Niederschlagsart
So, 29.01. 7:00 0.1 l/m2 in 1 Std. Regen
So, 29.01. 6:40 keine Meldung -
So, 29.01. 6:30 <0.05 l/m2 in 30 Min -
So, 29.01. 6:20 keine Meldung -
So, 29.01. 6:10 keine Meldung -
So, 29.01. 6:00 0.0 l/m2 in 1 Std. -
So, 29.01. 5:50 keine Meldung -
So, 29.01. 5:30 0.0 l/m2 in 30 Min -
So, 29.01. 5:00 <0.05 l/m2 in 1 Std. Regen
So, 29.01. 4:30 <0.05 l/m2 in 30 Min Schneeregen
So, 29.01. 4:00 0.3 l/m2 in 1 Std. Regen
Ortszeit Stärke Spitze Richtung
km/h Bft. km/h Grad Sektor
So, 29.01. 7:00 14 3 29 240° SW
So, 29.01. 1:00 15 3 28 250° W
Sa, 28.01. 19:00 13 3 24 230° SW
Sa, 28.01. 13:00 11 2 22 230° SW
Sa, 28.01. 7:00 4 1 11 250° W
Sa, 28.01. 1:00 2 1 20 50° NO
Fr, 27.01. 19:00 9 2 28 10° N
Fr, 27.01. 13:00 14 3 32 40° NO
Ortszeit Stärke Spitze Richtung
km/h Bft. km/h Grad Sektor
So, 29.01. 7:00 14 3 25 240° SW
So, 29.01. 6:40 14 3 - 250° W
So, 29.01. 6:30 13 3 22 250° W
So, 29.01. 6:20 13 3 - 250° W
So, 29.01. 6:10 11 2 - 260° W
So, 29.01. 6:00 13 3 24 250° W
So, 29.01. 5:50 13 3 - 250° W
So, 29.01. 5:30 15 3 24 250° W
So, 29.01. 5:00 15 3 28 240° SW
So, 29.01. 4:30 17 3 22 240° SW
So, 29.01. 4:00 15 3 26 240° SW
Ortszeit Untergrenze Bedeckung Gattung
total tief tief mittel hoch
So, 29.01. 7:00 90 m 7/8 7/8 - - -
So, 29.01. 1:00 240 m 8/8 8/8 - - -
Sa, 28.01. 19:00 750 m 8/8 8/8 - - -
Sa, 28.01. 13:00 2700 m 7/8 5/8 - - -
Sa, 28.01. 7:00 810 m 8/8 8/8 - - -
Sa, 28.01. 1:00 810 m 8/8 8/8 - - -
Fr, 27.01. 19:00 810 m 8/8 8/8 - - -
Fr, 27.01. 13:00 510 m 8/8 8/8 - - -
Ortszeit Bedeckungsgrad in Achtel und Wolkenuntergrenze
So, 29.01. 7:00 7(90m)
So, 29.01. 6:40 8
So, 29.01. 6:30 8(90m)
So, 29.01. 6:20 8(90m)
So, 29.01. 6:10 8
So, 29.01. 6:00 8(150m)
So, 29.01. 5:50 8(150m)
So, 29.01. 5:30 8(120m)
So, 29.01. 5:00 8(90m)
So, 29.01. 4:30 8(90m)
So, 29.01. 4:00 8(120m)
Ortszeit Luftdruck NN (hPa) Tendenz (hPa in 3 Std.)
So, 29.01. 7:00 1025 - 0,9
So, 29.01. 1:00 1027 - 1,0
Sa, 28.01. 19:00 1028 + 0,2
Sa, 28.01. 13:00 1029 - 1,1
Sa, 28.01. 7:00 1029 - 0,2
Sa, 28.01. 1:00 1029 - 0,2
Fr, 27.01. 19:00 1029 + 1,1
Fr, 27.01. 13:00 1028 + 0,3
Ortszeit Luftdruck NN (hPa) Tendenz (hPa in 3 Std.)
So, 29.01. 7:00 1025 - 0,9
So, 29.01. 6:40 1025 keine Meldung
So, 29.01. 6:30 1025 - 1,2
So, 29.01. 6:20 1025 keine Meldung
So, 29.01. 6:10 1025 keine Meldung
So, 29.01. 6:00 1025 - 1,2
So, 29.01. 5:50 1025 keine Meldung
So, 29.01. 5:30 1025 - 1,3
So, 29.01. 5:00 1025 - 1,0
So, 29.01. 4:30 1026 - 1,0
So, 29.01. 4:00 1026 - 0,7
Ortszeit Schneehöhe (cm)
So, 29.01. 7:00 0
So, 29.01. 1:00 0
Sa, 28.01. 19:00 0
Sa, 28.01. 13:00 0
Sa, 28.01. 7:00 0
Sa, 28.01. 1:00 0
Fr, 27.01. 19:00 0
Fr, 27.01. 13:00 0
Ortszeit Schneehöhe (cm)
So, 29.01. 7:00 0
So, 29.01. 6:40 0
So, 29.01. 6:30 0
So, 29.01. 6:20 0
So, 29.01. 6:10 0
So, 29.01. 6:00 0
So, 29.01. 5:50 0
So, 29.01. 5:30 0
So, 29.01. 5:00 0
So, 29.01. 4:30 0
So, 29.01. 4:00 0
Link zu dieser Seite / Seite empfehlen

Das Wetter in ...